createdAt,value
2024-03-02T00:00:42.764Z,10.8
2024-03-02T00:01:45.111Z,9.4
2024-03-02T00:02:47.277Z,11.5
2024-03-02T00:03:49.335Z,11.2
2024-03-02T00:04:51.256Z,10.1
2024-03-02T00:05:53.417Z,10.7
2024-03-02T00:06:55.567Z,10
2024-03-02T00:07:57.907Z,10.8
2024-03-02T00:08:59.749Z,8.9
2024-03-02T00:10:01.653Z,9.9
2024-03-02T00:11:04.030Z,9.8
2024-03-02T00:12:05.915Z,9
2024-03-02T00:13:07.574Z,9.9
2024-03-02T00:14:09.132Z,8.5
2024-03-02T00:15:10.639Z,9.7
2024-03-02T00:16:12.166Z,9.8
2024-03-02T00:17:13.655Z,9.5
2024-03-02T00:18:16.120Z,8.1
2024-03-02T00:19:18.144Z,9
2024-03-02T00:20:19.718Z,8.2
2024-03-02T00:21:21.507Z,10.1
2024-03-02T00:22:23.421Z,9.6
2024-03-02T00:23:25.244Z,9.2
2024-03-02T00:24:26.939Z,8.8
2024-03-02T00:25:28.977Z,10.5
2024-03-02T00:26:30.543Z,9.4
2024-03-02T00:27:32.251Z,10.1
2024-03-02T00:28:34.111Z,9
2024-03-02T00:29:35.773Z,9.7
2024-03-02T00:30:37.622Z,11.3
2024-03-02T00:31:39.544Z,9.6
2024-03-02T00:32:41.420Z,9.4
2024-03-02T00:33:43.515Z,11.3
2024-03-02T00:34:45.715Z,9.9
2024-03-02T00:35:47.296Z,8.9
2024-03-02T00:36:49.505Z,9.1
2024-03-02T00:37:51.461Z,11.6
2024-03-02T00:38:53.145Z,8.9
2024-03-02T00:39:55.003Z,9.1
2024-03-02T00:40:56.931Z,10
2024-03-02T00:41:58.542Z,9.9
2024-03-02T00:43:00.044Z,10.5
2024-03-02T00:44:01.916Z,9.8
2024-03-02T00:45:03.568Z,8.2
2024-03-02T00:46:05.224Z,9.9
2024-03-02T00:47:06.956Z,10.4
2024-03-02T00:48:08.522Z,9.4
2024-03-02T00:49:10.102Z,9.5
2024-03-02T00:50:31.817Z,10.5
2024-03-02T00:51:33.825Z,9.9
2024-03-02T00:52:35.650Z,9.5
2024-03-02T00:53:37.302Z,8.9
2024-03-02T00:54:39.128Z,7.2
2024-03-02T00:55:40.945Z,9.2
2024-03-02T00:56:42.565Z,9.3
2024-03-02T00:57:44.676Z,10.4
2024-03-02T00:58:46.693Z,9.3
2024-03-02T00:59:48.251Z,8.5
2024-03-02T01:00:50.342Z,7.5
2024-03-02T01:01:52.897Z,10
2024-03-02T01:02:55.082Z,9.6
2024-03-02T01:03:57.550Z,9.5
2024-03-02T01:04:59.992Z,8.6
2024-03-02T01:06:01.801Z,9.6
2024-03-02T01:07:03.918Z,9.3
2024-03-02T01:08:06.070Z,10
2024-03-02T01:09:07.605Z,10.3
2024-03-02T01:10:09.173Z,8
2024-03-02T01:11:11.233Z,9.5
2024-03-02T01:12:13.549Z,8.2
2024-03-02T01:13:15.387Z,8.1
2024-03-02T01:14:16.988Z,9.3
2024-03-02T01:15:19.018Z,9.7
2024-03-02T01:16:20.970Z,8.1
2024-03-02T01:17:23.335Z,10.4
2024-03-02T01:18:25.345Z,8.8
2024-03-02T01:19:27.407Z,8.9
2024-03-02T01:20:29.211Z,9.6
2024-03-02T01:21:31.019Z,10
2024-03-02T01:22:32.939Z,10.2
2024-03-02T01:23:34.464Z,9.5
2024-03-02T01:24:36.578Z,9.6
2024-03-02T01:25:38.503Z,9.5
2024-03-02T01:26:40.119Z,9
2024-03-02T01:27:42.022Z,7.4
2024-03-02T01:28:44.096Z,9.4
2024-03-02T01:29:45.649Z,8.1
2024-03-02T01:30:47.598Z,8.7
2024-03-02T01:31:49.596Z,9.8
2024-03-02T01:32:51.578Z,10.4
2024-03-02T01:33:53.943Z,10
2024-03-02T01:34:55.921Z,9.2
2024-03-02T01:35:57.555Z,9.3
2024-03-02T01:36:59.549Z,9.6
2024-03-02T01:38:01.423Z,10.8
2024-03-02T01:39:03.106Z,7.7
2024-03-02T01:40:04.777Z,8.6
2024-03-02T01:41:06.377Z,12.4
2024-03-02T01:42:07.922Z,11.4
2024-03-02T01:43:09.467Z,8.7
2024-03-02T01:44:11.446Z,9
2024-03-02T01:45:13.779Z,8.5
2024-03-02T01:46:16.269Z,9.5
2024-03-02T01:47:17.972Z,9.3
2024-03-02T01:48:19.566Z,9.1
2024-03-02T01:49:21.553Z,9.1
2024-03-02T01:50:23.087Z,9.1
2024-03-02T01:51:25.065Z,8.5
2024-03-02T01:52:26.846Z,9.4
2024-03-02T01:53:28.576Z,8.4
2024-03-02T01:54:30.308Z,9
2024-03-02T01:55:32.859Z,8.5
2024-03-02T01:56:34.383Z,8
2024-03-02T01:57:36.480Z,9.2
2024-03-02T01:58:38.494Z,10.5
2024-03-02T01:59:40.213Z,8.4
2024-03-02T02:00:42.823Z,8.4
2024-03-02T02:01:45.366Z,7.6
2024-03-02T02:02:47.228Z,10.3
2024-03-02T02:03:49.199Z,9.5
2024-03-02T02:04:51.012Z,10.9
2024-03-02T02:05:52.485Z,9.9
2024-03-02T02:06:54.546Z,7.5
2024-03-02T02:07:56.396Z,9.4
2024-03-02T02:08:57.882Z,9.5
2024-03-02T02:09:59.786Z,11.2
2024-03-02T02:11:02.168Z,9.2
2024-03-02T02:12:03.876Z,10.2
2024-03-02T02:13:05.681Z,9.5
2024-03-02T02:14:07.333Z,10.7
2024-03-02T02:15:09.088Z,8.5
2024-03-02T02:16:10.961Z,9.9
2024-03-02T02:17:12.541Z,10.9
2024-03-02T02:18:14.611Z,14.7
2024-03-02T02:19:16.291Z,10.9
2024-03-02T02:20:17.864Z,11.2
2024-03-02T02:21:19.939Z,11.2
2024-03-02T02:22:21.910Z,12
2024-03-02T02:23:23.434Z,9.9
2024-03-02T02:24:25.289Z,10.5
2024-03-02T02:25:26.895Z,10.6
2024-03-02T02:26:29.374Z,10.6
2024-03-02T02:27:31.251Z,12.3
2024-03-02T02:28:33.050Z,11.4
2024-03-02T02:29:34.669Z,11.2
2024-03-02T02:30:36.917Z,10
2024-03-02T02:31:38.810Z,11.6
2024-03-02T02:32:40.636Z,11.9
2024-03-02T02:33:42.779Z,10.6
2024-03-02T02:34:44.878Z,11
2024-03-02T02:35:46.522Z,12
2024-03-02T02:36:48.297Z,9.6
2024-03-02T02:37:50.362Z,11.7
2024-03-02T02:38:52.210Z,11.4
2024-03-02T02:39:54.316Z,12.9
2024-03-02T02:40:56.120Z,13
2024-03-02T02:41:57.653Z,10.3
2024-03-02T02:42:59.674Z,12
2024-03-02T02:44:01.777Z,12.2
2024-03-02T02:45:03.556Z,10.5
2024-03-02T02:46:05.679Z,8.3
2024-03-02T02:47:07.636Z,9.2
2024-03-02T02:48:09.805Z,9.1
2024-03-02T02:49:11.837Z,8.6
2024-03-02T02:50:14.191Z,8.4
2024-03-02T02:51:16.346Z,9.9
2024-03-02T02:52:18.162Z,11.1
2024-03-02T02:53:19.883Z,10.7
2024-03-02T02:54:22.327Z,9.3
2024-03-02T02:55:24.111Z,10.1
2024-03-02T02:56:25.718Z,11.3
2024-03-02T02:57:27.596Z,10.7
2024-03-02T02:58:29.275Z,11.1
2024-03-02T02:59:30.817Z,11.1
2024-03-02T03:00:32.756Z,9.2
2024-03-02T03:01:35.638Z,9.8
2024-03-02T03:02:37.524Z,9.5
2024-03-02T03:03:39.443Z,10.7
2024-03-02T03:04:41.442Z,9.8
2024-03-02T03:05:43.288Z,8.7
2024-03-02T03:06:45.260Z,8.9
2024-03-02T03:07:47.521Z,10.5
2024-03-02T03:08:49.241Z,11
2024-03-02T03:09:51.454Z,8.9
2024-03-02T03:10:53.808Z,11.9
2024-03-02T03:11:55.717Z,12.1
2024-03-02T03:12:58.371Z,11.8
2024-03-02T03:14:00.368Z,9
2024-03-02T03:15:01.917Z,11
2024-03-02T03:16:03.933Z,8.6
2024-03-02T03:17:05.927Z,10.6
2024-03-02T03:18:07.878Z,10.5
2024-03-02T03:19:10.150Z,9.2
2024-03-02T03:20:12.664Z,11.1
2024-03-02T03:21:14.755Z,11
2024-03-02T03:22:16.449Z,10.7
2024-03-02T03:23:17.987Z,10
2024-03-02T03:24:19.962Z,11.8
2024-03-02T03:25:21.825Z,11.8
2024-03-02T03:26:23.373Z,12
2024-03-02T03:27:25.603Z,10.6
2024-03-02T03:28:27.335Z,10.4
2024-03-02T03:29:28.857Z,11
2024-03-02T03:30:30.550Z,11.5
2024-03-02T03:31:32.471Z,12.1
2024-03-02T03:32:34.397Z,9.8
2024-03-02T03:33:36.313Z,11.1
2024-03-02T03:34:38.306Z,9.4
2024-03-02T03:35:40.421Z,13.1
2024-03-02T03:36:42.269Z,10.3
2024-03-02T03:37:44.156Z,13.7
2024-03-02T03:38:45.714Z,10.9
2024-03-02T03:39:47.823Z,10.1
2024-03-02T03:40:49.765Z,11.8
2024-03-02T03:41:51.305Z,9.9
2024-03-02T03:42:53.301Z,11.4
2024-03-02T03:43:55.191Z,11.6
2024-03-02T03:44:56.695Z,10.1
2024-03-02T03:45:58.647Z,13.2
2024-03-02T03:47:00.456Z,10.1
2024-03-02T03:48:02.655Z,11.1
2024-03-02T03:49:04.208Z,10.5
2024-03-02T03:50:05.810Z,11.3
2024-03-02T03:51:07.437Z,10.7
2024-03-02T03:52:09.120Z,11.4
2024-03-02T03:53:10.804Z,10.5
2024-03-02T03:54:12.332Z,12.4
2024-03-02T03:55:14.120Z,10.6
2024-03-02T03:56:15.718Z,11.6
2024-03-02T03:57:17.575Z,13.8
2024-03-02T03:58:23.861Z,9.6
2024-03-02T03:59:25.587Z,11.5
2024-03-02T04:00:27.515Z,8.7
2024-03-02T04:01:29.886Z,10.6
2024-03-02T04:02:31.560Z,10.3
2024-03-02T04:03:33.658Z,10.5
2024-03-02T04:04:35.783Z,9.8
2024-03-02T04:05:37.478Z,9.9
2024-03-02T04:06:39.524Z,9.3
2024-03-02T04:07:42.272Z,10.1
2024-03-02T04:08:44.320Z,8.7
2024-03-02T04:09:46.191Z,9.8
2024-03-02T04:10:48.585Z,9.7
2024-03-02T04:11:50.512Z,9.2
2024-03-02T04:12:52.475Z,8.9
2024-03-02T04:13:59.932Z,9.7
2024-03-02T04:15:02.043Z,9.2
2024-03-02T04:16:03.946Z,10.6
2024-03-02T04:17:05.898Z,10.9
2024-03-02T04:18:08.225Z,9.8
2024-03-02T04:19:10.247Z,10.2
2024-03-02T04:20:11.851Z,11.5
2024-03-02T04:21:13.412Z,10.6
2024-03-02T04:22:26.654Z,9.4
2024-03-02T04:23:28.453Z,10.6
2024-03-02T04:24:30.332Z,10.2
2024-03-02T04:25:32.221Z,11.3
2024-03-02T04:26:34.620Z,11.3
2024-03-02T04:27:37.043Z,10.8
2024-03-02T04:28:39.313Z,10.6
2024-03-02T04:29:41.052Z,11.3
2024-03-02T04:30:43.063Z,10
2024-03-02T04:31:45.238Z,11.2
2024-03-02T04:32:47.415Z,12.1
2024-03-02T04:33:50.270Z,11.1
2024-03-02T04:34:52.302Z,11.2
2024-03-02T04:35:53.849Z,10.6
2024-03-02T04:36:55.931Z,10.4
2024-03-02T04:37:57.893Z,11.4
2024-03-02T04:38:59.509Z,11.1
2024-03-02T04:40:01.955Z,11.3
2024-03-02T04:41:03.771Z,11.4
2024-03-02T04:42:05.533Z,12.2
2024-03-02T04:43:07.840Z,11.7
2024-03-02T04:44:09.652Z,12.6
2024-03-02T04:45:11.238Z,10.9
2024-03-02T04:46:13.142Z,12.4
2024-03-02T04:47:14.641Z,11.4
2024-03-02T04:48:17.135Z,11.9
2024-03-02T04:49:19.871Z,13.5
2024-03-02T04:50:22.020Z,12.8
2024-03-02T04:51:24.164Z,11.8
2024-03-02T04:52:26.038Z,10.3
2024-03-02T04:53:27.662Z,10.9
2024-03-02T04:54:29.329Z,10.4
2024-03-02T04:55:31.616Z,11.6
2024-03-02T04:56:33.625Z,11.7
2024-03-02T04:57:35.601Z,11.4
2024-03-02T04:58:37.254Z,10.6
2024-03-02T04:59:38.821Z,11.2
2024-03-02T05:00:41.139Z,12
2024-03-02T05:01:43.579Z,11.7
2024-03-02T05:02:45.562Z,11.5
2024-03-02T05:03:47.389Z,10.9
2024-03-02T05:04:49.626Z,11.9
2024-03-02T05:05:51.894Z,12.2
2024-03-02T05:06:54.960Z,10.9
2024-03-02T05:07:57.011Z,13.1
2024-03-02T05:08:58.766Z,12.2
2024-03-02T05:10:00.868Z,12.6
2024-03-02T05:11:03.260Z,13.5
2024-03-02T05:12:05.398Z,14.2
2024-03-02T05:13:07.526Z,12.8
2024-03-02T05:14:09.524Z,13.4
2024-03-02T05:15:11.044Z,11.7
2024-03-02T05:16:12.650Z,13.6
2024-03-02T05:17:14.156Z,12.3
2024-03-02T05:18:16.339Z,14.3
2024-03-02T05:19:18.467Z,12.9
2024-03-02T05:20:20.081Z,13.7
2024-03-02T05:21:22.208Z,13.2
2024-03-02T05:22:23.914Z,12.8
2024-03-02T05:23:25.480Z,12.1
2024-03-02T05:24:27.365Z,11.1
2024-03-02T05:25:29.071Z,13.3
2024-03-02T05:26:31.127Z,13.2
2024-03-02T05:27:33.297Z,11.9
2024-03-02T05:28:34.935Z,11
2024-03-02T05:29:36.661Z,13.2
2024-03-02T05:30:38.331Z,11.6
2024-03-02T05:31:40.182Z,10.8
2024-03-02T05:32:41.989Z,13.1
2024-03-02T05:33:44.320Z,11.6
2024-03-02T05:34:47.162Z,14.8
2024-03-02T05:35:48.800Z,11.5
2024-03-02T05:36:51.035Z,13.2
2024-03-02T05:37:53.053Z,11.8
2024-03-02T05:38:54.697Z,10
2024-03-02T05:39:56.726Z,11.1
2024-03-02T05:40:58.856Z,12.8
2024-03-02T05:42:00.721Z,13.4
2024-03-02T05:43:02.608Z,12.3
2024-03-02T05:44:04.524Z,11.6
2024-03-02T05:45:06.421Z,12.7
2024-03-02T05:46:08.037Z,10.5
2024-03-02T05:47:09.591Z,12.3
2024-03-02T05:48:11.825Z,15.2
2024-03-02T05:49:13.875Z,13.6
2024-03-02T05:50:15.585Z,11.3
2024-03-02T05:51:17.341Z,11.8
2024-03-02T05:52:19.141Z,11.5
2024-03-02T05:53:20.739Z,12.8
2024-03-02T05:54:22.771Z,11.4
2024-03-02T05:55:24.638Z,12.8
2024-03-02T05:56:26.164Z,13.2
2024-03-02T05:57:28.058Z,12.8
2024-03-02T05:58:29.663Z,13.4
2024-03-02T05:59:31.243Z,12.1
2024-03-02T06:00:33.594Z,12.5
2024-03-02T06:01:36.197Z,13.7
2024-03-02T06:02:40.759Z,12.4
2024-03-02T06:03:42.780Z,12.3
2024-03-02T06:04:45.023Z,11.5
2024-03-02T06:05:46.555Z,12.8
2024-03-02T06:06:48.761Z,13.4
2024-03-02T06:07:50.798Z,12
2024-03-02T06:08:52.293Z,11.5
2024-03-02T06:09:54.292Z,10.8
2024-03-02T06:10:56.633Z,11.5
2024-03-02T06:11:58.351Z,10.2
2024-03-02T06:13:00.824Z,12.7
2024-03-02T06:14:03.020Z,12
2024-03-02T06:15:04.552Z,11.5
2024-03-02T06:16:06.523Z,10.6
2024-03-02T06:17:08.447Z,12.3
2024-03-02T06:18:10.514Z,11
2024-03-02T06:19:12.218Z,10.6
2024-03-02T06:20:13.717Z,14.4
2024-03-02T06:21:15.417Z,13.5
2024-03-02T06:22:16.977Z,11.5
2024-03-02T06:23:18.583Z,11.1
2024-03-02T06:24:20.357Z,12.6
2024-03-02T06:25:22.119Z,16.7
2024-03-02T06:26:26.917Z,16.8
2024-03-02T06:27:28.904Z,12.4
2024-03-02T06:28:30.898Z,12.7
2024-03-02T06:29:32.473Z,10.7
2024-03-02T06:30:34.385Z,10.4
2024-03-02T06:31:36.476Z,11.9
2024-03-02T06:32:38.153Z,13
2024-03-02T06:33:40.466Z,10.7
2024-03-02T06:34:42.312Z,12.7
2024-03-02T06:35:43.945Z,13
2024-03-02T06:36:45.949Z,14
2024-03-02T06:37:47.718Z,12.9
2024-03-02T06:38:49.641Z,12.1
2024-03-02T06:39:51.531Z,16.7
2024-03-02T06:40:53.442Z,13.5
2024-03-02T06:41:55.015Z,13
2024-03-02T06:42:57.616Z,10.9
2024-03-02T06:43:59.678Z,14.3
2024-03-02T06:45:01.290Z,11.8
2024-03-02T06:46:03.240Z,12.3
2024-03-02T06:47:05.009Z,13.3
2024-03-02T06:48:07.195Z,13
2024-03-02T06:49:09.084Z,14.9
2024-03-02T06:50:10.654Z,12.4
2024-03-02T06:51:12.456Z,13.7
2024-03-02T06:52:13.980Z,12.7
2024-03-02T06:53:15.497Z,13.4
2024-03-02T06:54:17.624Z,11.5
2024-03-02T06:55:19.333Z,12.3
2024-03-02T06:56:20.928Z,12.1
2024-03-02T06:57:23.317Z,14.6
2024-03-02T06:58:25.323Z,13.6
2024-03-02T06:59:26.886Z,14.9
2024-03-02T07:00:28.798Z,17.5
2024-03-02T07:01:30.777Z,14.2
2024-03-02T07:02:32.424Z,13.1
2024-03-02T07:03:34.677Z,14.7
2024-03-02T07:04:36.835Z,16
2024-03-02T07:05:38.657Z,12.6
2024-03-02T07:06:40.633Z,13.8
2024-03-02T07:07:42.659Z,13.9
2024-03-02T07:08:44.230Z,13.9
2024-03-02T07:09:46.494Z,13.6
2024-03-02T07:10:48.658Z,12.1
2024-03-02T07:11:53.159Z,12.8
2024-03-02T07:12:55.267Z,14
2024-03-02T07:13:57.356Z,12.7
2024-03-02T07:14:58.974Z,13.3
2024-03-02T07:16:01.322Z,12.7
2024-03-02T07:17:03.331Z,12.5
2024-03-02T07:18:04.972Z,13.3
2024-03-02T07:19:07.383Z,15.6
2024-03-02T07:20:10.091Z,12.8
2024-03-02T07:21:11.654Z,15.9
2024-03-02T07:22:13.380Z,11.9
2024-03-02T07:23:14.978Z,13.2
2024-03-02T07:24:16.565Z,13.8
2024-03-02T07:27:51.554Z,16.4
2024-03-02T07:28:53.448Z,14.3
2024-03-02T07:29:55.035Z,14.4
2024-03-02T07:30:56.927Z,15
2024-03-02T07:31:58.793Z,13.4
2024-03-02T07:33:00.567Z,12.6
2024-03-02T07:34:03.499Z,12.6
2024-03-02T07:35:05.455Z,13.2
2024-03-02T07:36:07.089Z,12.2
2024-03-02T07:37:08.738Z,13.4
2024-03-02T07:38:10.334Z,11.7
2024-03-02T07:39:11.958Z,10.8
2024-03-02T07:40:13.468Z,11.9
2024-03-02T07:41:15.280Z,12.6
2024-03-02T07:42:16.942Z,12.2
2024-03-02T07:43:18.540Z,10.6
2024-03-02T07:44:20.172Z,11.2
2024-03-02T07:45:21.936Z,11.1
2024-03-02T07:46:23.802Z,10.6
2024-03-02T07:47:25.675Z,9.9
2024-03-02T07:48:27.815Z,11.3
2024-03-02T07:49:29.619Z,9.9
2024-03-02T07:50:31.217Z,10.8
2024-03-02T07:51:32.951Z,8.3
2024-03-02T07:52:34.682Z,10.9
2024-03-02T07:53:36.284Z,11.1
2024-03-02T07:54:38.179Z,9.3
2024-03-02T07:55:40.034Z,9.6
2024-03-02T07:56:41.873Z,10.1
2024-03-02T07:57:43.659Z,10.3
2024-03-02T07:58:45.483Z,10.5
2024-03-02T07:59:47.073Z,9.1
2024-03-02T08:00:55.138Z,11.3
2024-03-02T08:01:58.006Z,7.3
2024-03-02T08:02:59.658Z,10.8
2024-03-02T08:04:02.072Z,11.2
2024-03-02T08:05:04.152Z,11.9
2024-03-02T08:06:05.898Z,10
2024-03-02T08:07:07.877Z,10.5
2024-03-02T08:08:09.672Z,12.6
2024-03-02T08:09:11.311Z,12.9
2024-03-02T08:10:13.190Z,12.6
2024-03-02T08:11:15.775Z,12.1
2024-03-02T08:12:18.075Z,12.2
2024-03-02T08:13:19.927Z,11.3
2024-03-02T08:14:21.453Z,10.9
2024-03-02T08:15:23.282Z,11.7
2024-03-02T08:16:25.388Z,11.3
2024-03-02T08:17:27.171Z,11.7
2024-03-02T08:18:29.454Z,10.8
2024-03-02T08:19:31.426Z,11.3
2024-03-02T08:20:33.392Z,12.4
2024-03-02T08:21:35.305Z,13.2
2024-03-02T08:22:37.232Z,12.4
2024-03-02T08:23:45.087Z,10.1
2024-03-02T08:24:47.110Z,11.4
2024-03-02T08:25:49.062Z,11.5
2024-03-02T08:26:50.605Z,12
2024-03-02T08:27:53.063Z,13.3
2024-03-02T08:28:54.976Z,12.6
2024-03-02T08:29:56.510Z,12.1
2024-03-02T08:30:59.548Z,13.6
2024-03-02T08:32:01.483Z,14.2
2024-03-02T08:33:03.444Z,13.3
2024-03-02T08:34:05.951Z,12.7
2024-03-02T08:35:07.949Z,14
2024-03-02T08:36:09.700Z,11.8
2024-03-02T08:37:11.285Z,12.2
2024-03-02T08:38:12.997Z,12.8
2024-03-02T08:39:14.624Z,13.1
2024-03-02T08:40:20.299Z,11
2024-03-02T08:41:21.916Z,12.7
2024-03-02T08:42:23.905Z,13.7
2024-03-02T08:43:25.837Z,12
2024-03-02T08:44:27.565Z,10.5
2024-03-02T08:45:29.493Z,11.4
2024-03-02T08:46:31.212Z,15.4
2024-03-02T08:47:33.321Z,13.5
2024-03-02T08:48:36.401Z,12.1
2024-03-02T08:49:38.351Z,13.1
2024-03-02T08:50:40.038Z,12.7
2024-03-02T08:51:41.862Z,12.4
2024-03-02T08:52:43.803Z,12.7
2024-03-02T08:53:45.594Z,13.3
2024-03-02T08:54:47.607Z,13.6
2024-03-02T08:55:49.400Z,13.3
2024-03-02T08:56:50.933Z,14
2024-03-02T08:57:52.753Z,13.6
2024-03-02T08:58:54.845Z,14.6
2024-03-02T08:59:56.437Z,13.4
2024-03-02T09:00:58.507Z,14.6
2024-03-02T09:02:01.161Z,14.6
2024-03-02T09:03:02.987Z,13.4
2024-03-02T09:04:05.102Z,12.7
2024-03-02T09:05:07.425Z,14.1
2024-03-02T09:06:09.418Z,12.7
2024-03-02T09:07:11.088Z,14.6
2024-03-02T09:08:12.676Z,12
2024-03-02T09:09:14.287Z,13.2
2024-03-02T09:10:15.795Z,14.1
2024-03-02T09:11:17.384Z,12.6
2024-03-02T09:12:19.362Z,13.9
2024-03-02T09:13:21.151Z,14.2
2024-03-02T09:14:22.852Z,11.3
2024-03-02T09:15:24.831Z,12.2
2024-03-02T09:16:26.792Z,13.7
2024-03-02T09:17:28.676Z,12.2
2024-03-02T09:18:30.590Z,13.1
2024-03-02T09:19:32.496Z,13.2
2024-03-02T09:20:34.020Z,13.1
2024-03-02T09:21:36.005Z,12.2
2024-03-02T09:22:37.901Z,13.8
2024-03-02T09:23:39.418Z,11
2024-03-02T09:24:41.566Z,13.5
2024-03-02T09:25:43.418Z,13.9
2024-03-02T09:26:45.076Z,12.2
2024-03-02T09:27:47.532Z,12.9
2024-03-02T09:28:49.257Z,12.3
2024-03-02T09:29:51.042Z,6.8
2024-03-02T09:30:52.984Z,14.5
2024-03-02T09:34:20.585Z,12.3
2024-03-02T09:37:26.382Z,13.3
2024-03-02T09:38:28.467Z,11
2024-03-02T09:39:30.164Z,10.7
2024-03-02T09:41:33.179Z,12.4
2024-03-02T09:42:35.370Z,12.2
2024-03-02T09:43:37.265Z,9
2024-03-02T09:44:38.822Z,12.9
2024-03-02T09:45:40.990Z,10.1
2024-03-02T09:46:42.942Z,10.9
2024-03-02T09:47:44.687Z,11.6
2024-03-02T09:48:46.863Z,10.8
2024-03-02T09:49:48.683Z,11
2024-03-02T09:50:50.249Z,9.7
2024-03-02T09:51:52.554Z,11
2024-03-02T09:53:30.269Z,12.1
2024-03-02T09:54:32.061Z,12.1
2024-03-02T09:55:34.004Z,9.7
2024-03-02T09:56:35.495Z,12.5
2024-03-02T09:57:42.293Z,10
2024-03-02T09:58:44.302Z,10.7
2024-03-02T09:59:46.060Z,10
2024-03-02T10:00:48.546Z,11.4
2024-03-02T10:01:51.014Z,9.7
2024-03-02T10:02:52.538Z,9.9
2024-03-02T10:03:54.282Z,10.8
2024-03-02T10:04:55.878Z,11.1
2024-03-02T10:05:57.735Z,9.7
2024-03-02T10:06:59.671Z,13
2024-03-02T10:08:01.565Z,11.8
2024-03-02T10:09:03.174Z,11.2
2024-03-02T10:10:05.078Z,9.3
2024-03-02T10:11:07.021Z,10.3
2024-03-02T10:12:08.856Z,9.5
2024-03-02T10:13:10.399Z,9.5
2024-03-02T10:14:12.042Z,8.5
2024-03-02T10:15:13.719Z,10.3
2024-03-02T10:16:15.904Z,10.8
2024-03-02T10:17:17.618Z,11.9
2024-03-02T10:18:19.134Z,8.5
2024-03-02T10:19:21.025Z,8
2024-03-02T10:20:22.631Z,8
2024-03-02T10:21:24.560Z,7.5
2024-03-02T10:22:26.345Z,8.8
2024-03-02T10:23:27.936Z,7.5
2024-03-02T10:24:29.626Z,7.6
2024-03-02T10:25:58.863Z,6.5
2024-03-02T10:27:00.978Z,6.5
2024-03-02T10:28:03.228Z,7.2
2024-03-02T10:29:05.345Z,8.9
2024-03-02T10:30:07.338Z,8.5
2024-03-02T10:31:11.925Z,7.2
2024-03-02T10:32:14.140Z,7.9
2024-03-02T10:33:15.753Z,8.8
2024-03-02T10:34:17.784Z,8.7
2024-03-02T10:35:19.359Z,9.3
2024-03-02T10:36:21.284Z,7.9
2024-03-02T10:37:23.363Z,6.8
2024-03-02T10:38:24.995Z,7.4
2024-03-02T10:39:26.958Z,7.4
2024-03-02T10:40:28.622Z,7.6
2024-03-02T10:41:30.354Z,8.7
2024-03-02T10:42:32.261Z,7.7
2024-03-02T10:43:34.013Z,8.1
2024-03-02T10:44:36.500Z,8.9
2024-03-02T10:45:38.471Z,8.2
2024-03-02T10:46:40.342Z,7.6
2024-03-02T10:47:42.359Z,8
2024-03-02T10:48:44.239Z,9
2024-03-02T10:49:46.122Z,9.4
2024-03-02T10:50:47.915Z,8.4
2024-03-02T10:51:49.819Z,8.7
2024-03-02T10:52:51.806Z,8.7
2024-03-02T10:53:53.369Z,9.2
2024-03-02T10:54:55.419Z,8.7
2024-03-02T10:56:03.850Z,8.5
2024-03-02T10:57:05.972Z,7.6
2024-03-02T10:58:08.617Z,9
2024-03-02T10:59:10.652Z,9
2024-03-02T11:00:12.244Z,8.4
2024-03-02T11:01:14.357Z,7.6
2024-03-02T11:02:16.495Z,9.2
2024-03-02T11:03:18.255Z,7.3
2024-03-02T11:04:20.333Z,8.1
2024-03-02T11:05:21.916Z,9.8
2024-03-02T11:06:23.846Z,8.4
2024-03-02T11:07:25.801Z,7.4
2024-03-02T11:08:27.749Z,8.4
2024-03-02T11:09:29.692Z,10.1
2024-03-02T11:10:31.444Z,8.8
2024-03-02T11:11:33.335Z,8
2024-03-02T11:12:35.357Z,8.5
2024-03-02T11:13:42.933Z,8.1
2024-03-02T11:14:44.572Z,8.5
2024-03-02T11:15:46.756Z,8.3
2024-03-02T11:16:48.566Z,7.6
2024-03-02T11:17:50.315Z,7.6
2024-03-02T11:18:52.751Z,7.5
2024-03-02T11:19:54.991Z,7.2
2024-03-02T11:20:56.926Z,7
2024-03-02T11:21:59.310Z,7.5
2024-03-02T11:23:01.724Z,6.4
2024-03-02T11:24:03.274Z,5.3
2024-03-02T11:25:05.154Z,6.8
2024-03-02T11:26:07.507Z,6.4
2024-03-02T11:27:09.270Z,6.3
2024-03-02T11:28:12.299Z,5.5
2024-03-02T11:29:14.271Z,6.8
2024-03-02T11:30:15.901Z,6
2024-03-02T11:31:17.552Z,9.1
2024-03-02T11:32:19.458Z,5.8
2024-03-02T11:33:21.488Z,7.2
2024-03-02T11:34:23.811Z,6.1
2024-03-02T11:35:25.384Z,6.1
2024-03-02T11:36:27.107Z,6.3
2024-03-02T11:37:28.765Z,5.3
2024-03-02T11:38:30.541Z,5.9
2024-03-02T11:39:32.994Z,5.3
2024-03-02T11:40:34.991Z,5.5
2024-03-02T11:41:36.870Z,3.8
2024-03-02T11:42:38.620Z,4.4
2024-03-02T11:43:40.379Z,4.3
2024-03-02T11:44:42.699Z,4.7
2024-03-02T11:45:44.793Z,4.9
2024-03-02T11:46:47.930Z,5.2
2024-03-02T11:47:50.041Z,4.6
2024-03-02T11:48:52.345Z,3.1
2024-03-02T11:49:54.295Z,3.7
2024-03-02T11:50:55.964Z,4
2024-03-02T11:51:57.986Z,5.1
2024-03-02T11:52:59.851Z,4.4
2024-03-02T11:54:01.499Z,4.4
2024-03-02T11:55:04.011Z,4.5
2024-03-02T11:56:06.247Z,4.2
2024-03-02T11:57:08.112Z,3.3
2024-03-02T11:58:10.272Z,3.4
2024-03-02T11:59:12.360Z,4.2
2024-03-02T12:00:13.927Z,3.7
2024-03-02T12:01:16.040Z,4.1
2024-03-02T12:02:18.033Z,3.8
2024-03-02T12:03:19.935Z,4.3
2024-03-02T12:04:22.968Z,4.2
2024-03-02T12:05:25.072Z,4.3
2024-03-02T12:06:26.956Z,3.9
2024-03-02T12:07:29.056Z,3.4
2024-03-02T12:08:30.914Z,3.6
2024-03-02T12:09:33.205Z,5.2
2024-03-02T12:10:35.453Z,4
2024-03-02T12:11:38.039Z,3
2024-03-02T12:12:40.296Z,3.7
2024-03-02T12:13:42.844Z,4.3
2024-03-02T12:14:44.555Z,4.4
2024-03-02T12:15:46.529Z,3.7
2024-03-02T12:16:48.401Z,4.6
2024-03-02T12:17:50.239Z,4.5
2024-03-02T12:18:52.310Z,3.5
2024-03-02T12:19:54.183Z,3.4
2024-03-02T12:20:55.805Z,4.2
2024-03-02T12:21:57.909Z,4.4
2024-03-02T12:22:59.908Z,4.1
2024-03-02T12:24:01.549Z,3.3
2024-03-02T12:25:03.739Z,4.2
2024-03-02T12:26:05.929Z,4.1
2024-03-02T12:27:07.842Z,3.2
2024-03-02T12:28:09.984Z,4.6
2024-03-02T12:29:11.969Z,4.5
2024-03-02T12:30:13.536Z,3.7
2024-03-02T12:31:15.323Z,3.8
2024-03-02T12:32:17.225Z,3.8
2024-03-02T12:33:19.392Z,5.4
2024-03-02T12:34:22.078Z,3.1
2024-03-02T12:35:24.100Z,5.3
2024-03-02T12:36:26.097Z,3.5
2024-03-02T12:37:28.077Z,3.6
2024-03-02T12:38:29.608Z,2.9
2024-03-02T12:39:31.324Z,2.3
2024-03-02T12:40:33.075Z,2.7
2024-03-02T12:41:34.903Z,3.2
2024-03-02T12:42:37.079Z,3.6
2024-03-02T12:43:38.913Z,3.5
2024-03-02T12:44:40.451Z,2.7
2024-03-02T12:45:42.640Z,3.2
2024-03-02T12:46:44.466Z,3.7
2024-03-02T12:47:47.058Z,3.1
2024-03-02T12:48:49.432Z,3.8
2024-03-02T12:49:51.374Z,3.4
2024-03-02T12:50:53.013Z,4.1
2024-03-02T12:51:55.498Z,3.6
2024-03-02T12:52:58.042Z,3.7
2024-03-02T12:53:59.637Z,3.3
2024-03-02T12:55:02.240Z,3.7
2024-03-02T12:56:04.786Z,3.7
2024-03-02T12:57:06.849Z,3.5
2024-03-02T12:58:08.830Z,3.5
2024-03-02T12:59:10.767Z,3.8
2024-03-02T13:00:12.394Z,3.6
2024-03-02T13:01:14.604Z,3.6
2024-03-02T13:02:16.984Z,3.3
2024-03-02T13:03:18.533Z,4.1
2024-03-02T13:04:20.063Z,4.3
2024-03-02T13:05:22.282Z,3.7
2024-03-02T13:06:23.961Z,4.7
2024-03-02T13:07:26.040Z,4.6
2024-03-02T13:08:27.585Z,5.2
2024-03-02T13:09:29.922Z,21.4
2024-03-02T13:10:32.008Z,7.2
2024-03-02T13:11:33.545Z,5.3
2024-03-02T13:12:35.461Z,5.8
2024-03-02T13:13:37.521Z,5.4
2024-03-02T13:14:39.255Z,5
2024-03-02T13:15:41.333Z,5.1
2024-03-02T13:16:48.974Z,4.5
2024-03-02T13:17:51.039Z,5.2
2024-03-02T13:18:52.893Z,5.7
2024-03-02T13:19:55.032Z,4.7
2024-03-02T13:20:56.693Z,4.4
2024-03-02T13:21:58.661Z,5.3
2024-03-02T13:23:00.461Z,6.1
2024-03-02T13:24:02.077Z,5.5
2024-03-02T13:25:04.563Z,5.5
2024-03-02T13:26:07.418Z,4.6
2024-03-02T13:27:09.026Z,4.5
2024-03-02T13:28:11.422Z,5.2
2024-03-02T13:29:13.265Z,4.6
2024-03-02T13:30:14.869Z,4.1
2024-03-02T13:31:16.515Z,5.3
2024-03-02T13:32:18.215Z,4.9
2024-03-02T13:33:20.237Z,5
2024-03-02T13:34:22.186Z,4.6
2024-03-02T13:35:23.701Z,4.9
2024-03-02T13:36:25.690Z,5.3
2024-03-02T13:37:27.682Z,4.6
2024-03-02T13:38:29.759Z,4.5
2024-03-02T13:39:31.540Z,5.1
2024-03-02T13:40:33.368Z,5.1
2024-03-02T13:41:34.910Z,5.1
2024-03-02T13:42:36.809Z,4.8
2024-03-02T13:43:38.773Z,4.1
2024-03-02T13:44:40.321Z,4.1
2024-03-02T13:45:42.238Z,5.2
2024-03-02T13:46:44.023Z,5.9
2024-03-02T13:47:45.927Z,5
2024-03-02T13:48:48.282Z,5.3
2024-03-02T13:49:50.845Z,5.1
2024-03-02T13:50:52.683Z,5.8
2024-03-02T13:51:54.657Z,6.2
2024-03-02T13:52:56.583Z,5
2024-03-02T13:53:58.225Z,5.4
2024-03-02T13:55:00.202Z,5.1
2024-03-02T13:56:02.623Z,5.1
2024-03-02T13:57:04.654Z,5.2
2024-03-02T13:58:06.745Z,5.8
2024-03-02T13:59:09.005Z,5.6
2024-03-02T14:00:10.546Z,6
2024-03-02T14:01:12.737Z,6.3
2024-03-02T14:02:14.702Z,5.1
2024-03-02T14:03:16.466Z,6
2024-03-02T14:04:18.390Z,6.2
2024-03-02T14:05:20.193Z,6.3
2024-03-02T14:06:21.892Z,4.5
2024-03-02T14:07:23.474Z,5.8
2024-03-02T14:08:24.970Z,5
2024-03-02T14:09:28.874Z,4.3
2024-03-02T14:10:30.758Z,4.8
2024-03-02T14:11:32.506Z,5.2
2024-03-02T14:12:34.567Z,4.6
2024-03-02T14:13:36.299Z,4